createdAt,value
2019-04-14T00:00:53.268Z,0.00
2019-04-14T00:01:52.942Z,0.00
2019-04-14T00:02:53.317Z,0.00
2019-04-14T00:03:52.977Z,0.00
2019-04-14T00:04:53.006Z,0.00
2019-04-14T00:05:53.931Z,0.00
2019-04-14T00:06:52.877Z,0.00
2019-04-14T00:07:53.820Z,0.00
2019-04-14T00:08:52.857Z,0.00
2019-04-14T00:09:54.153Z,0.00
2019-04-14T00:10:52.973Z,0.00
2019-04-14T00:11:52.834Z,0.00
2019-04-14T00:12:53.550Z,0.00
2019-04-14T00:13:52.799Z,0.00
2019-04-14T00:14:53.427Z,0.00
2019-04-14T00:15:53.781Z,0.00
2019-04-14T00:16:53.184Z,0.00
2019-04-14T00:17:52.756Z,0.00
2019-04-14T00:18:53.376Z,0.00
2019-04-14T00:19:53.006Z,0.00
2019-04-14T00:20:53.417Z,0.00
2019-04-14T00:21:52.861Z,0.00
2019-04-14T00:22:53.439Z,0.00
2019-04-14T00:23:52.719Z,0.00
2019-04-14T00:24:53.220Z,0.00
2019-04-14T00:25:52.679Z,0.00
2019-04-14T00:26:53.137Z,0.00
2019-04-14T00:27:52.646Z,0.00
2019-04-14T00:28:53.475Z,0.00
2019-04-14T00:29:52.621Z,0.00
2019-04-14T00:30:59.890Z,0.00
2019-04-14T00:31:54.182Z,0.00
2019-04-14T00:32:53.091Z,0.00
2019-04-14T00:33:52.600Z,0.00
2019-04-14T00:34:52.801Z,0.00
2019-04-14T00:35:53.762Z,0.00
2019-04-14T00:36:52.714Z,0.00
2019-04-14T00:37:53.388Z,0.00
2019-04-14T00:38:52.541Z,0.00
2019-04-14T00:39:53.319Z,0.00
2019-04-14T00:40:53.906Z,0.00
2019-04-14T00:41:56.993Z,0.00
2019-04-14T00:42:53.828Z,0.00
2019-04-14T00:43:52.802Z,0.00
2019-04-14T00:44:53.746Z,0.00
2019-04-14T00:45:55.060Z,0.00
2019-04-14T00:46:52.444Z,0.00
2019-04-14T00:48:02.566Z,0.00
2019-04-14T00:48:54.004Z,0.00
2019-04-14T00:49:53.040Z,0.00
2019-04-14T00:50:52.402Z,0.00
2019-04-14T00:51:52.799Z,0.00
2019-04-14T00:52:52.391Z,0.00
2019-04-14T00:53:53.350Z,0.00
2019-04-14T00:54:52.494Z,0.00
2019-04-14T00:55:53.295Z,0.00
2019-04-14T00:56:52.478Z,0.00
2019-04-14T00:57:52.984Z,0.00
2019-04-14T00:58:52.546Z,0.00
2019-04-14T00:59:53.079Z,0.00
2019-04-14T01:00:53.695Z,0.00
2019-04-14T01:01:52.746Z,0.00
2019-04-14T01:02:52.281Z,0.00
2019-04-14T01:03:52.648Z,0.00
2019-04-14T01:04:53.429Z,0.00
2019-04-14T01:05:52.662Z,0.00
2019-04-14T01:06:53.358Z,0.00
2019-04-14T01:07:52.393Z,0.00
2019-04-14T01:08:53.220Z,0.00
2019-04-14T01:09:53.190Z,0.00
2019-04-14T01:10:52.403Z,0.00
2019-04-14T01:11:53.146Z,0.00
2019-04-14T01:12:52.361Z,0.00
2019-04-14T01:13:52.988Z,0.00
2019-04-14T01:14:52.142Z,0.00
2019-04-14T01:16:01.857Z,0.00
2019-04-14T01:16:53.835Z,0.00
2019-04-14T01:17:52.886Z,0.00
2019-04-14T01:18:52.241Z,0.00
2019-04-14T01:19:52.762Z,0.00
2019-04-14T01:20:52.063Z,0.00
2019-04-14T01:21:52.530Z,0.00
2019-04-14T01:22:53.098Z,0.00
2019-04-14T01:23:52.362Z,0.00
2019-04-14T01:24:53.187Z,0.00
2019-04-14T01:25:52.131Z,0.00
2019-04-14T01:26:52.869Z,0.00
2019-04-14T01:27:51.995Z,0.00
2019-04-14T01:28:52.649Z,0.00
2019-04-14T01:29:52.146Z,0.00
2019-04-14T01:30:52.291Z,0.00
2019-04-14T01:31:51.954Z,0.00
2019-04-14T01:32:52.229Z,0.00
2019-04-14T01:33:53.285Z,0.00
2019-04-14T01:34:53.672Z,0.00
2019-04-14T01:35:53.140Z,0.00
2019-04-14T01:36:51.916Z,0.00
2019-04-14T01:37:52.881Z,0.00
2019-04-14T01:38:53.639Z,0.00
2019-04-14T01:39:52.499Z,0.00
2019-04-14T01:40:53.054Z,0.00
2019-04-14T01:41:52.445Z,0.00
2019-04-14T01:42:52.782Z,0.00
2019-04-14T01:43:52.165Z,0.00
2019-04-14T01:44:52.500Z,0.00
2019-04-14T01:46:02.399Z,0.00
2019-04-14T01:46:52.792Z,0.00
2019-04-14T01:47:53.231Z,0.00
2019-04-14T01:48:51.900Z,0.00
2019-04-14T01:49:52.965Z,0.00
2019-04-14T01:50:51.803Z,0.00
2019-04-14T01:51:52.845Z,0.00
2019-04-14T01:52:52.303Z,0.00
2019-04-14T01:53:51.713Z,0.00
2019-04-14T01:54:51.700Z,0.00
2019-04-14T01:55:52.691Z,0.00
2019-04-14T01:56:51.679Z,0.00
2019-04-14T01:57:52.472Z,0.00
2019-04-14T01:58:51.819Z,0.00
2019-04-14T01:59:52.545Z,0.00
2019-04-14T02:00:51.678Z,0.00
2019-04-14T02:01:52.056Z,0.00
2019-04-14T02:02:51.620Z,0.00
2019-04-14T02:03:51.997Z,0.00
2019-04-14T02:04:52.900Z,0.00
2019-04-14T02:05:51.855Z,0.00
2019-04-14T02:06:52.715Z,0.00
2019-04-14T02:07:51.655Z,0.00
2019-04-14T02:08:52.191Z,0.00
2019-04-14T02:09:51.532Z,0.00
2019-04-14T02:10:52.047Z,0.00
2019-04-14T02:11:51.609Z,0.00
2019-04-14T02:12:51.848Z,0.00
2019-04-14T02:13:52.790Z,0.00
2019-04-14T02:14:51.714Z,0.00
2019-04-14T02:15:52.727Z,0.00
2019-04-14T02:16:56.080Z,0.00
2019-04-14T02:17:52.513Z,0.00
2019-04-14T02:18:53.553Z,0.00
2019-04-14T02:19:52.411Z,0.00
2019-04-14T02:20:51.551Z,0.00
2019-04-14T02:21:52.005Z,0.00
2019-04-14T02:22:51.597Z,0.00
2019-04-14T02:23:51.896Z,0.00
2019-04-14T02:24:52.699Z,0.00
2019-04-14T02:25:51.509Z,0.00
2019-04-14T02:26:52.521Z,0.00
2019-04-14T02:27:51.539Z,0.00
2019-04-14T02:28:52.835Z,0.00
2019-04-14T02:29:51.632Z,0.00
2019-04-14T02:31:08.280Z,0.00
2019-04-14T02:32:26.780Z,0.00
2019-04-14T02:33:23.986Z,0.00
2019-04-14T02:34:26.045Z,0.00
2019-04-14T02:36:21.799Z,0.00
2019-04-14T02:37:19.679Z,0.00
2019-04-14T02:38:34.107Z,0.00
2019-04-14T02:39:20.959Z,0.00
2019-04-14T02:40:28.613Z,0.00
2019-04-14T02:41:29.637Z,0.00
2019-04-14T02:42:26.169Z,0.00
2019-04-14T02:43:27.773Z,0.00
2019-04-14T02:44:24.035Z,0.00
2019-04-14T02:45:28.123Z,0.00
2019-04-14T02:46:43.033Z,0.00
2019-04-14T02:47:36.383Z,0.00
2019-04-14T02:49:18.720Z,0.00
2019-04-14T02:50:20.993Z,0.00
2019-04-14T02:51:20.786Z,0.00
2019-04-14T02:52:22.294Z,0.00
2019-04-14T02:53:23.938Z,0.00
2019-04-14T02:54:24.593Z,0.00
2019-04-14T02:55:15.367Z,0.00
2019-04-14T02:56:25.187Z,0.00
2019-04-14T02:57:24.234Z,0.00
2019-04-14T02:58:30.892Z,0.00
2019-04-14T02:59:22.861Z,0.00
2019-04-14T03:01:27.562Z,0.00
2019-04-14T03:03:21.687Z,0.00
2019-04-14T03:04:21.541Z,0.00
2019-04-14T03:05:19.562Z,0.00
2019-04-14T03:07:23.054Z,0.00
2019-04-14T03:08:25.859Z,0.00
2019-04-14T03:10:18.569Z,0.00
2019-04-14T03:11:21.229Z,0.00
2019-04-14T03:12:16.435Z,0.00
2019-04-14T03:14:23.434Z,0.00
2019-04-14T03:15:22.244Z,0.00
2019-04-14T03:16:25.751Z,0.00
2019-04-14T03:18:35.225Z,0.00
2019-04-14T03:19:20.444Z,0.00
2019-04-14T03:21:21.484Z,0.00
2019-04-14T03:23:30.279Z,0.00
2019-04-14T03:24:23.201Z,0.00
2019-04-14T03:25:05.746Z,0.00
2019-04-14T03:26:15.623Z,0.00
2019-04-14T03:27:28.485Z,0.00
2019-04-14T03:28:17.568Z,0.00
2019-04-14T03:29:15.109Z,0.00
2019-04-14T03:30:48.878Z,0.00
2019-04-14T03:31:47.277Z,0.00
2019-04-14T03:36:58.612Z,0.00
2019-04-14T03:38:24.776Z,0.00
2019-04-14T03:39:17.271Z,0.00
2019-04-14T03:40:18.281Z,0.00
2019-04-14T03:41:29.950Z,0.00
2019-04-14T03:42:21.256Z,0.00
2019-04-14T03:43:18.813Z,0.00
2019-04-14T03:44:23.403Z,0.00
2019-04-14T03:45:28.195Z,0.00
2019-04-14T03:47:23.810Z,0.00
2019-04-14T03:48:46.444Z,0.00
2019-04-14T03:49:17.815Z,0.00
2019-04-14T03:50:16.871Z,0.00
2019-04-14T03:51:26.307Z,0.00
2019-04-14T03:53:21.757Z,0.00
2019-04-14T03:54:10.895Z,0.00
2019-04-14T03:55:05.573Z,0.00
2019-04-14T03:55:55.330Z,0.00
2019-04-14T03:56:51.623Z,0.00
2019-04-14T03:57:51.957Z,0.00
2019-04-14T03:58:51.137Z,0.00
2019-04-14T03:59:50.528Z,0.00
2019-04-14T04:00:51.461Z,0.00
2019-04-14T04:01:50.354Z,0.00
2019-04-14T04:02:51.171Z,0.00
2019-04-14T04:03:50.726Z,0.00
2019-04-14T04:04:51.274Z,0.00
2019-04-14T04:05:50.265Z,0.00
2019-04-14T04:06:50.997Z,0.00
2019-04-14T04:07:50.228Z,0.00
2019-04-14T04:08:50.984Z,0.00
2019-04-14T04:09:50.421Z,0.00
2019-04-14T04:10:51.096Z,0.00
2019-04-14T04:11:50.193Z,0.00
2019-04-14T04:12:51.148Z,0.00
2019-04-14T04:13:50.161Z,0.00
2019-04-14T04:14:51.078Z,0.00
2019-04-14T04:15:50.137Z,0.00
2019-04-14T04:16:50.797Z,0.00
2019-04-14T04:17:50.121Z,0.00
2019-04-14T04:18:59.084Z,0.00
2019-04-14T04:19:51.434Z,5.62
2019-04-14T04:20:50.186Z,5.62
2019-04-14T04:21:50.929Z,5.62
2019-04-14T04:22:50.068Z,5.62
2019-04-14T04:23:51.123Z,5.62
2019-04-14T04:24:50.101Z,5.62
2019-04-14T04:25:57.056Z,5.62
2019-04-14T04:26:50.116Z,11.25
2019-04-14T04:27:50.476Z,11.25
2019-04-14T04:28:50.024Z,11.25
2019-04-14T04:29:50.558Z,11.25
2019-04-14T04:30:49.980Z,11.25
2019-04-14T04:31:50.492Z,16.88
2019-04-14T04:32:49.959Z,16.88
2019-04-14T04:33:50.152Z,16.88
2019-04-14T04:34:51.050Z,22.50
2019-04-14T04:35:50.128Z,22.50
2019-04-14T04:36:50.894Z,22.50
2019-04-14T04:37:52.031Z,22.50
2019-04-14T04:38:50.997Z,22.50
2019-04-14T04:39:49.884Z,22.50
2019-04-14T04:40:50.773Z,22.50
2019-04-14T04:41:51.497Z,22.50
2019-04-14T04:42:50.480Z,22.50
2019-04-14T04:43:49.927Z,22.50
2019-04-14T04:44:50.912Z,22.50
2019-04-14T04:45:49.809Z,22.50
2019-04-14T04:46:50.448Z,22.50
2019-04-14T04:47:49.795Z,22.50
2019-04-14T04:48:59.987Z,22.50
2019-04-14T04:49:51.177Z,22.50
2019-04-14T04:50:50.014Z,16.88
2019-04-14T04:51:50.840Z,16.88
2019-04-14T04:52:49.778Z,16.88
2019-04-14T04:53:50.517Z,22.50
2019-04-14T04:54:49.833Z,16.88
2019-04-14T04:55:50.399Z,16.88
2019-04-14T04:56:49.682Z,22.50
2019-04-14T04:57:50.247Z,28.12
2019-04-14T04:58:50.179Z,28.12
2019-04-14T04:59:49.719Z,28.12
2019-04-14T05:00:52.574Z,28.12
2019-04-14T05:01:49.633Z,22.50
2019-04-14T05:02:50.591Z,28.12
2019-04-14T05:03:49.823Z,28.12
2019-04-14T05:04:50.553Z,33.75
2019-04-14T05:05:49.610Z,33.75
2019-04-14T05:06:50.515Z,33.75
2019-04-14T05:07:49.577Z,28.12
2019-04-14T05:08:50.243Z,33.75
2019-04-14T05:09:49.545Z,28.12
2019-04-14T05:10:50.282Z,28.12
2019-04-14T05:11:52.593Z,28.12
2019-04-14T05:12:50.180Z,28.12
2019-04-14T05:13:49.497Z,28.12
2019-04-14T05:14:50.140Z,28.12
2019-04-14T05:15:49.494Z,22.50
2019-04-14T05:16:50.669Z,28.12
2019-04-14T05:17:49.726Z,33.75
2019-04-14T05:18:49.488Z,39.38
2019-04-14T05:19:49.679Z,39.38
2019-04-14T05:20:49.418Z,39.38
2019-04-14T05:21:49.559Z,39.38
2019-04-14T05:22:50.697Z,45.00
2019-04-14T05:23:49.625Z,50.62
2019-04-14T05:24:50.701Z,50.62
2019-04-14T05:25:49.557Z,56.25
2019-04-14T05:26:50.529Z,56.25
2019-04-14T05:27:51.604Z,50.62
2019-04-14T05:28:50.557Z,56.25
2019-04-14T05:29:49.433Z,61.88
2019-04-14T05:30:50.349Z,56.25
2019-04-14T05:31:49.299Z,67.50
2019-04-14T05:32:50.156Z,78.75
2019-04-14T05:33:49.273Z,95.62
2019-04-14T05:34:50.187Z,95.62
2019-04-14T05:35:49.441Z,90.00
2019-04-14T05:36:50.027Z,84.38
2019-04-14T05:37:49.242Z,90.00
2019-04-14T05:38:49.602Z,90.00
2019-04-14T05:39:50.404Z,101.25
2019-04-14T05:40:49.647Z,106.88
2019-04-14T05:42:03.821Z,106.88
2019-04-14T05:42:50.187Z,95.62
2019-04-14T05:43:55.138Z,95.62
2019-04-14T05:44:51.436Z,95.62
2019-04-14T05:45:50.151Z,95.62
2019-04-14T05:46:56.359Z,106.88
2019-04-14T05:47:50.186Z,95.62
2019-04-14T05:48:49.281Z,101.25
2019-04-14T05:49:52.707Z,118.12
2019-04-14T05:50:51.176Z,123.75
2019-04-14T05:51:50.156Z,123.75
2019-04-14T05:52:49.353Z,129.38
2019-04-14T05:53:50.086Z,129.38
2019-04-14T05:54:49.328Z,129.38
2019-04-14T05:55:50.311Z,135.00
2019-04-14T05:56:49.390Z,146.25
2019-04-14T05:57:50.171Z,151.88
2019-04-14T05:58:49.330Z,135.00
2019-04-14T05:59:49.003Z,157.50
2019-04-14T06:00:51.365Z,151.88
2019-04-14T06:03:01.712Z,112.50
2019-04-14T06:04:00.496Z,118.12
2019-04-14T06:05:01.532Z,118.12
2019-04-14T06:06:00.691Z,123.75
2019-04-14T06:07:00.479Z,101.25
2019-04-14T06:08:00.454Z,135.00
2019-04-14T06:09:00.684Z,123.75
2019-04-14T06:10:00.449Z,118.12
2019-04-14T06:11:00.442Z,101.25
2019-04-14T06:12:00.415Z,106.88
2019-04-14T06:13:00.559Z,101.25
2019-04-14T06:14:00.327Z,106.88
2019-04-14T06:15:00.658Z,101.25
2019-04-14T06:16:00.412Z,90.00
2019-04-14T06:17:00.290Z,112.50
2019-04-14T06:18:00.272Z,106.88
2019-04-14T06:19:00.277Z,118.12
2019-04-14T06:20:00.250Z,112.50
2019-04-14T06:21:00.447Z,129.38
2019-04-14T06:22:00.233Z,135.00
2019-04-14T06:23:00.222Z,118.12
2019-04-14T06:24:00.222Z,118.12
2019-04-14T06:25:00.194Z,129.38
2019-04-14T06:26:00.368Z,118.12
2019-04-14T06:27:00.173Z,118.12
2019-04-14T06:28:00.181Z,112.50
2019-04-14T06:29:00.277Z,112.50
2019-04-14T06:30:00.161Z,118.12
2019-04-14T06:31:00.183Z,129.38
2019-04-14T06:32:00.129Z,129.38
2019-04-14T06:33:00.111Z,112.50
2019-04-14T06:34:00.111Z,118.12
2019-04-14T06:35:00.434Z,112.50
2019-04-14T06:36:00.108Z,140.62
2019-04-14T06:37:00.070Z,140.62
2019-04-14T06:38:00.067Z,118.12
2019-04-14T06:39:00.053Z,129.38
2019-04-14T06:40:00.177Z,129.38
2019-04-14T06:41:00.038Z,129.38
2019-04-14T06:42:00.958Z,112.50
2019-04-14T06:43:00.008Z,95.62
2019-04-14T06:43:59.993Z,101.25
2019-04-14T06:45:11.201Z,101.25
2019-04-14T06:45:59.965Z,112.50
2019-04-14T06:46:59.966Z,112.50
2019-04-14T06:47:59.982Z,95.62
2019-04-14T06:48:59.950Z,90.00
2019-04-14T06:50:00.272Z,84.38
2019-04-14T06:51:00.134Z,78.75
2019-04-14T06:51:59.902Z,84.38
2019-04-14T06:52:59.899Z,90.00
2019-04-14T06:53:59.899Z,90.00
2019-04-14T06:54:59.866Z,84.38
2019-04-14T06:56:00.052Z,73.12
2019-04-14T06:56:59.850Z,84.38
2019-04-14T06:57:59.841Z,84.38
2019-04-14T06:58:59.880Z,95.62
2019-04-14T06:59:59.848Z,90.00
2019-04-14T07:00:59.826Z,95.62
2019-04-14T07:02:01.887Z,101.25
2019-04-14T07:03:00.751Z,106.88
2019-04-14T07:03:59.785Z,101.25
2019-04-14T07:04:59.871Z,78.75
2019-04-14T07:06:00.181Z,84.38
2019-04-14T07:06:59.762Z,106.88
2019-04-14T07:07:59.854Z,106.88
2019-04-14T07:08:59.737Z,106.88
2019-04-14T07:09:59.752Z,112.50
2019-04-14T07:10:59.730Z,123.75
2019-04-14T07:11:59.716Z,118.12
2019-04-14T07:12:59.838Z,118.12
2019-04-14T07:13:59.693Z,112.50
2019-04-14T07:14:59.662Z,129.38
2019-04-14T07:15:59.646Z,174.38
2019-04-14T07:16:59.633Z,180.00
2019-04-14T07:17:59.628Z,191.25
2019-04-14T07:18:59.762Z,191.25
2019-04-14T07:20:02.312Z,174.38
2019-04-14T07:20:59.591Z,180.00
2019-04-14T07:21:59.627Z,196.88
2019-04-14T07:22:59.571Z,180.00
2019-04-14T07:23:59.569Z,180.00
2019-04-14T07:24:59.748Z,180.00
2019-04-14T07:25:59.540Z,196.88
2019-04-14T07:26:59.537Z,191.25
2019-04-14T07:27:59.538Z,185.62
2019-04-14T07:28:59.508Z,168.75
2019-04-14T07:29:59.495Z,168.75
2019-04-14T07:30:59.760Z,180.00
2019-04-14T07:32:00.137Z,180.00
2019-04-14T07:33:13.750Z,180.00
2019-04-14T07:33:59.443Z,185.62
2019-04-14T07:34:59.478Z,191.25
2019-04-14T07:35:59.429Z,196.88
2019-04-14T07:36:59.672Z,208.12
2019-04-14T07:37:59.420Z,213.75
2019-04-14T07:38:59.473Z,230.62
2019-04-14T07:39:59.391Z,241.88
2019-04-14T07:40:59.378Z,247.50
2019-04-14T07:41:59.591Z,241.88
2019-04-14T07:42:59.369Z,213.75
2019-04-14T07:43:59.468Z,208.12
2019-04-14T07:44:59.342Z,213.75
2019-04-14T07:45:59.333Z,213.75
2019-04-14T07:46:59.649Z,219.38
2019-04-14T07:47:59.307Z,219.38
2019-04-14T07:48:59.283Z,213.75
2019-04-14T07:49:59.419Z,230.62
2019-04-14T07:50:59.265Z,236.25
2019-04-14T07:51:59.251Z,236.25
2019-04-14T07:52:59.280Z,241.88
2019-04-14T07:53:59.299Z,236.25
2019-04-14T07:54:59.414Z,219.38
2019-04-14T07:55:59.430Z,213.75
2019-04-14T07:56:59.194Z,196.88
2019-04-14T07:57:59.225Z,191.25
2019-04-14T07:58:59.194Z,185.62
2019-04-14T07:59:59.287Z,174.38
2019-04-14T08:00:59.149Z,174.38
2019-04-14T08:01:59.366Z,168.75
2019-04-14T08:02:59.133Z,163.12
2019-04-14T08:03:59.128Z,163.12
2019-04-14T08:04:59.111Z,163.12
2019-04-14T08:05:59.241Z,168.75
2019-04-14T08:06:59.483Z,168.75
2019-04-14T08:07:59.339Z,168.75
2019-04-14T08:08:59.137Z,174.38
2019-04-14T08:10:00.909Z,180.00
2019-04-14T08:10:59.207Z,185.62
2019-04-14T08:11:59.267Z,180.00
2019-04-14T08:12:59.017Z,180.00
2019-04-14T08:13:59.001Z,185.62
2019-04-14T08:14:59.006Z,191.25
2019-04-14T08:15:59.008Z,185.62
2019-04-14T08:16:58.982Z,196.88
2019-04-14T08:17:59.270Z,208.12
2019-04-14T08:18:58.967Z,208.12
2019-04-14T08:19:59.020Z,202.50
2019-04-14T08:20:58.978Z,208.12
2019-04-14T08:21:59.081Z,208.12
2019-04-14T08:22:58.923Z,185.62
2019-04-14T08:23:59.120Z,180.00
2019-04-14T08:24:58.897Z,213.75
2019-04-14T08:25:58.915Z,241.88
2019-04-14T08:26:58.870Z,241.88
2019-04-14T08:27:58.996Z,236.25
2019-04-14T08:28:58.944Z,241.88
2019-04-14T08:29:59.254Z,253.12
2019-04-14T08:30:58.822Z,241.88
2019-04-14T08:31:58.886Z,230.62
2019-04-14T08:32:58.805Z,213.75
2019-04-14T08:33:58.801Z,196.88
2019-04-14T08:35:01.319Z,191.25
2019-04-14T08:35:58.780Z,213.75
2019-04-14T08:36:58.766Z,225.00
2019-04-14T08:37:58.776Z,225.00
2019-04-14T08:38:58.745Z,219.38
2019-04-14T08:39:58.732Z,225.00
2019-04-14T08:40:58.865Z,230.62
2019-04-14T08:41:58.708Z,230.62
2019-04-14T08:42:58.735Z,225.00
2019-04-14T08:43:58.672Z,202.50
2019-04-14T08:44:58.785Z,208.12
2019-04-14T08:45:58.842Z,185.62
2019-04-14T08:46:58.661Z,208.12
2019-04-14T08:47:58.647Z,185.62
2019-04-14T08:48:58.653Z,185.62
2019-04-14T08:49:58.605Z,185.62
2019-04-14T08:50:59.868Z,191.25
2019-04-14T08:51:58.706Z,196.88
2019-04-14T08:52:58.791Z,213.75
2019-04-14T08:53:58.586Z,230.62
2019-04-14T08:54:58.577Z,247.50
2019-04-14T08:55:58.557Z,253.12
2019-04-14T08:56:58.759Z,264.38
2019-04-14T08:57:58.614Z,258.75
2019-04-14T08:58:58.720Z,286.88
2019-04-14T08:59:58.640Z,315.00
2019-04-14T09:00:58.483Z,343.12
2019-04-14T09:01:58.981Z,348.75
2019-04-14T09:02:58.792Z,343.12
2019-04-14T09:03:58.730Z,365.62
2019-04-14T09:04:58.692Z,376.88
2019-04-14T09:05:58.472Z,421.88
2019-04-14T09:06:58.457Z,410.62
2019-04-14T09:07:58.465Z,388.12
2019-04-14T09:08:58.457Z,360.00
2019-04-14T09:09:58.436Z,393.75
2019-04-14T09:10:58.713Z,405.00
2019-04-14T09:11:58.456Z,416.25
2019-04-14T09:12:58.859Z,416.25
2019-04-14T09:13:58.433Z,371.25
2019-04-14T09:14:58.452Z,348.75
2019-04-14T09:15:58.330Z,326.25
2019-04-14T09:16:58.438Z,309.38
2019-04-14T09:17:58.325Z,286.88
2019-04-14T09:19:07.536Z,270.00
2019-04-14T09:19:59.456Z,253.12
2019-04-14T09:20:58.283Z,241.88
2019-04-14T09:21:58.434Z,241.88
2019-04-14T09:22:58.261Z,241.88
2019-04-14T09:23:58.238Z,258.75
2019-04-14T09:24:58.219Z,275.62
2019-04-14T09:25:58.207Z,303.75
2019-04-14T09:26:58.319Z,320.62
2019-04-14T09:27:58.208Z,320.62
2019-04-14T09:28:58.222Z,320.62
2019-04-14T09:29:58.164Z,320.62
2019-04-14T09:30:58.156Z,309.38
2019-04-14T09:31:58.336Z,292.50
2019-04-14T09:32:58.371Z,315.00
2019-04-14T09:33:58.167Z,326.25
2019-04-14T09:34:58.259Z,320.62
2019-04-14T09:35:58.164Z,320.62
2019-04-14T09:36:58.088Z,320.62
2019-04-14T09:37:58.161Z,275.62
2019-04-14T09:38:58.077Z,241.88
2019-04-14T09:39:58.063Z,236.25
2019-04-14T09:40:59.891Z,253.12
2019-04-14T09:41:58.041Z,225.00
2019-04-14T09:42:58.031Z,230.62
2019-04-14T09:43:58.008Z,225.00
2019-04-14T09:44:58.008Z,225.00
2019-04-14T09:45:58.032Z,225.00
2019-04-14T09:46:58.292Z,208.12
2019-04-14T09:47:57.981Z,168.75
2019-04-14T09:48:57.956Z,185.62
2019-04-14T09:49:57.954Z,191.25
2019-04-14T09:51:04.793Z,202.50
2019-04-14T09:51:59.090Z,219.38
2019-04-14T09:52:57.923Z,230.62
2019-04-14T09:53:57.899Z,213.75
2019-04-14T09:54:57.905Z,208.12
2019-04-14T09:55:57.879Z,213.75
2019-04-14T09:56:57.872Z,208.12
2019-04-14T09:57:58.104Z,225.00
2019-04-14T09:58:57.837Z,236.25
2019-04-14T09:59:57.830Z,225.00
2019-04-14T10:00:57.934Z,213.75
2019-04-14T10:01:58.181Z,225.00
2019-04-14T10:02:57.913Z,236.25
2019-04-14T10:03:57.783Z,230.62
2019-04-14T10:04:57.793Z,219.38
2019-04-14T10:05:57.821Z,208.12
2019-04-14T10:06:57.773Z,191.25
2019-04-14T10:07:58.166Z,202.50
2019-04-14T10:08:57.732Z,213.75
2019-04-14T10:09:58.143Z,202.50
2019-04-14T10:10:57.713Z,196.88
2019-04-14T10:11:57.703Z,196.88
2019-04-14T10:12:57.707Z,180.00
2019-04-14T10:13:57.681Z,191.25
2019-04-14T10:14:57.671Z,191.25
2019-04-14T10:15:57.809Z,191.25
2019-04-14T10:16:57.644Z,185.62
2019-04-14T10:17:57.854Z,180.00
2019-04-14T10:18:57.635Z,180.00
2019-04-14T10:19:57.620Z,185.62
2019-04-14T10:20:57.625Z,174.38
2019-04-14T10:21:57.756Z,174.38
2019-04-14T10:22:57.657Z,185.62
2019-04-14T10:23:57.579Z,185.62
2019-04-14T10:24:57.574Z,180.00
2019-04-14T10:25:57.563Z,174.38
2019-04-14T10:26:57.551Z,163.12
2019-04-14T10:27:57.687Z,174.38
2019-04-14T10:28:57.525Z,174.38
2019-04-14T10:29:57.511Z,180.00
2019-04-14T10:30:58.290Z,191.25
2019-04-14T10:31:57.506Z,196.88
2019-04-14T10:32:57.477Z,191.25
2019-04-14T10:33:58.186Z,191.25
2019-04-14T10:34:57.461Z,191.25
2019-04-14T10:35:57.451Z,191.25
2019-04-14T10:36:57.434Z,191.25
2019-04-14T10:37:57.427Z,196.88
2019-04-14T10:38:57.601Z,202.50
2019-04-14T10:39:57.487Z,213.75
2019-04-14T10:40:57.399Z,225.00
2019-04-14T10:41:57.384Z,230.62
2019-04-14T10:42:57.371Z,236.25
2019-04-14T10:43:57.704Z,236.25
2019-04-14T10:44:57.341Z,230.62
2019-04-14T10:45:57.352Z,213.75
2019-04-14T10:46:57.324Z,225.00
2019-04-14T10:47:57.331Z,219.38
2019-04-14T10:48:57.302Z,225.00
2019-04-14T10:49:57.466Z,230.62
2019-04-14T10:50:57.274Z,230.62
2019-04-14T10:51:57.280Z,230.62
2019-04-14T10:52:57.261Z,230.62
2019-04-14T10:53:57.264Z,225.00
2019-04-14T10:54:57.936Z,225.00
2019-04-14T10:55:57.220Z,219.38
2019-04-14T10:56:57.467Z,219.38
2019-04-14T10:57:57.221Z,213.75
2019-04-14T10:58:57.263Z,213.75
2019-04-14T10:59:57.193Z,213.75
2019-04-14T11:00:57.463Z,208.12
2019-04-14T11:01:57.166Z,208.12
2019-04-14T11:02:57.149Z,208.12
2019-04-14T11:03:57.160Z,213.75
2019-04-14T11:04:57.132Z,213.75
2019-04-14T11:05:57.215Z,213.75
2019-04-14T11:06:57.113Z,213.75
2019-04-14T11:07:57.105Z,213.75
2019-04-14T11:08:57.091Z,219.38
2019-04-14T11:09:57.069Z,225.00
2019-04-14T11:10:57.063Z,225.00
2019-04-14T11:11:57.216Z,225.00
2019-04-14T11:12:57.043Z,230.62
2019-04-14T11:13:57.064Z,230.62
2019-04-14T11:14:57.011Z,241.88
2019-04-14T11:15:57.027Z,247.50
2019-04-14T11:16:57.006Z,253.12
2019-04-14T11:17:57.457Z,258.75
2019-04-14T11:18:56.974Z,270.00
2019-04-14T11:19:56.964Z,281.25
2019-04-14T11:20:57.291Z,292.50
2019-04-14T11:21:56.950Z,298.12
2019-04-14T11:23:03.199Z,303.75
2019-04-14T11:23:58.184Z,303.75
2019-04-14T11:24:56.916Z,298.12
2019-04-14T11:25:56.897Z,298.12
2019-04-14T11:26:56.923Z,298.12
2019-04-14T11:27:56.969Z,303.75
2019-04-14T11:28:57.094Z,320.62
2019-04-14T11:29:56.853Z,320.62
2019-04-14T11:30:56.871Z,309.38
2019-04-14T11:31:56.898Z,303.75
2019-04-14T11:32:56.833Z,298.12
2019-04-14T11:33:56.992Z,292.50
2019-04-14T11:34:57.067Z,320.62
2019-04-14T11:35:56.781Z,320.62
2019-04-14T11:36:56.901Z,315.00
2019-04-14T11:37:56.770Z,320.62
2019-04-14T11:38:56.759Z,315.00
2019-04-14T11:39:57.396Z,315.00
2019-04-14T11:40:56.739Z,326.25
2019-04-14T11:41:56.731Z,376.88
2019-04-14T11:42:56.716Z,331.88
2019-04-14T11:43:56.705Z,421.88
2019-04-14T11:44:56.712Z,444.38
2019-04-14T11:45:57.306Z,427.50
2019-04-14T11:46:56.668Z,388.12
2019-04-14T11:47:56.715Z,382.50
2019-04-14T11:48:56.675Z,405.00
2019-04-14T11:49:58.415Z,388.12
2019-04-14T11:50:56.637Z,354.38
2019-04-14T11:51:56.816Z,348.75
2019-04-14T11:52:56.600Z,371.25
2019-04-14T11:53:56.624Z,410.62
2019-04-14T11:54:56.584Z,427.50
2019-04-14T11:55:56.565Z,472.50
2019-04-14T11:56:56.735Z,540.00
2019-04-14T11:57:56.547Z,601.88
2019-04-14T11:58:56.762Z,596.25
2019-04-14T11:59:56.532Z,601.88
2019-04-14T12:00:56.506Z,635.62
2019-04-14T12:01:56.508Z,759.38
2019-04-14T12:02:56.568Z,973.12
2019-04-14T12:03:56.479Z,1108.12
2019-04-14T12:04:56.924Z,1136.25
2019-04-14T12:05:56.459Z,1091.25
2019-04-14T12:06:56.491Z,1181.25
2019-04-14T12:07:56.478Z,956.25
2019-04-14T12:08:56.552Z,810.00
2019-04-14T12:09:56.453Z,691.88
2019-04-14T12:10:57.208Z,641.25
2019-04-14T12:11:56.463Z,641.25
2019-04-14T12:12:56.493Z,686.25
2019-04-14T12:13:56.433Z,663.75
2019-04-14T12:14:56.427Z,607.50
2019-04-14T12:15:56.441Z,601.88
2019-04-14T12:16:56.748Z,601.88
2019-04-14T12:17:56.436Z,601.88
2019-04-14T12:18:56.308Z,573.75
2019-04-14T12:19:56.303Z,562.50
2019-04-14T12:20:56.294Z,551.25
2019-04-14T12:22:07.693Z,523.12
2019-04-14T12:22:57.839Z,478.12
2019-04-14T12:23:56.327Z,466.88
2019-04-14T12:24:57.244Z,455.62
2019-04-14T12:26:05.269Z,416.25
2019-04-14T12:26:57.231Z,500.62
2019-04-14T12:27:56.548Z,579.38
2019-04-14T12:28:56.225Z,585.00
2019-04-14T12:29:56.711Z,590.62
2019-04-14T12:30:57.510Z,568.12
2019-04-14T12:31:57.338Z,568.12
2019-04-14T12:32:56.429Z,585.00
2019-04-14T12:33:56.754Z,601.88
2019-04-14T12:34:56.230Z,624.38
2019-04-14T12:35:56.235Z,641.25
2019-04-14T12:36:58.755Z,646.88
2019-04-14T12:37:56.100Z,635.62
2019-04-14T12:38:56.475Z,618.75
2019-04-14T12:39:56.080Z,607.50
2019-04-14T12:40:57.802Z,579.38
2019-04-14T12:41:56.056Z,540.00
2019-04-14T12:42:56.054Z,517.50
2019-04-14T12:43:57.559Z,495.00
2019-04-14T12:44:56.271Z,489.38
2019-04-14T12:45:56.029Z,489.38
2019-04-14T12:46:56.025Z,489.38
2019-04-14T12:47:55.998Z,500.62
2019-04-14T12:48:56.005Z,500.62
2019-04-14T12:49:55.975Z,495.00
2019-04-14T12:50:56.255Z,495.00
2019-04-14T12:51:56.072Z,489.38
2019-04-14T12:52:55.960Z,489.38
2019-04-14T12:53:55.933Z,489.38
2019-04-14T12:54:55.928Z,489.38
2019-04-14T12:55:55.900Z,495.00
2019-04-14T12:56:56.299Z,511.88
2019-04-14T12:57:55.907Z,534.38
2019-04-14T12:58:55.884Z,545.62
2019-04-14T12:59:55.862Z,528.75
2019-04-14T13:00:56.777Z,495.00
2019-04-14T13:01:56.094Z,455.62
2019-04-14T13:02:55.828Z,427.50
2019-04-14T13:03:55.872Z,421.88
2019-04-14T13:04:55.826Z,433.12